createdAt,value
2018-12-12T00:01:45.997Z,19.90
2018-12-12T00:04:18.268Z,21.50
2018-12-12T00:06:50.927Z,16.03
2018-12-12T00:09:23.087Z,11.20
2018-12-12T00:11:55.235Z,13.47
2018-12-12T00:14:27.383Z,11.73
2018-12-12T00:16:59.564Z,10.27
2018-12-12T00:19:31.737Z,13.43
2018-12-12T00:22:04.183Z,14.53
2018-12-12T00:24:36.330Z,8.03
2018-12-12T00:27:08.479Z,13.33
2018-12-12T00:29:40.661Z,6.70
2018-12-12T00:32:12.815Z,14.83
2018-12-12T00:34:44.956Z,6.67
2018-12-12T00:37:16.997Z,8.47
2018-12-12T00:39:49.040Z,7.47
2018-12-12T00:42:21.186Z,10.13
2018-12-12T00:44:53.353Z,10.57
2018-12-12T00:47:25.498Z,7.73
2018-12-12T00:49:57.569Z,13.63
2018-12-12T00:52:29.719Z,7.77
2018-12-12T00:55:01.893Z,10.70
2018-12-12T00:57:34.096Z,10.47
2018-12-12T01:00:06.252Z,8.60
2018-12-12T01:02:38.393Z,6.50
2018-12-12T01:05:10.603Z,10.57
2018-12-12T01:07:42.768Z,10.10
2018-12-12T01:10:15.036Z,6.23
2018-12-12T01:12:47.100Z,11.67
2018-12-12T01:15:19.147Z,5.53
2018-12-12T01:17:51.295Z,7.73
2018-12-12T01:20:23.455Z,5.97
2018-12-12T01:22:55.612Z,10.43
2018-12-12T01:25:27.768Z,5.73
2018-12-12T01:28:00.044Z,13.63
2018-12-12T01:30:32.328Z,11.47
2018-12-12T01:33:04.495Z,7.97
2018-12-12T01:35:36.646Z,5.87
2018-12-12T01:38:08.947Z,7.50
2018-12-12T01:40:41.114Z,9.90
2018-12-12T01:43:13.423Z,5.97
2018-12-12T01:45:45.631Z,7.50
2018-12-12T01:48:17.756Z,8.40
2018-12-12T01:50:49.923Z,11.93
2018-12-12T01:53:22.076Z,8.20
2018-12-12T01:55:54.231Z,6.70
2018-12-12T01:58:26.386Z,7.07
2018-12-12T02:00:58.536Z,8.77
2018-12-12T02:03:30.689Z,9.23
2018-12-12T02:06:02.846Z,6.20
2018-12-12T02:08:35.020Z,5.23
2018-12-12T02:11:07.184Z,7.90
2018-12-12T02:13:39.324Z,9.77
2018-12-12T02:16:11.601Z,6.10
2018-12-12T02:18:45.113Z,8.47
2018-12-12T02:21:17.294Z,8.07
2018-12-12T02:23:49.451Z,13.40
2018-12-12T02:26:21.591Z,7.70
2018-12-12T02:28:53.628Z,8.67
2018-12-12T02:31:25.784Z,9.90
2018-12-12T02:33:57.944Z,15.83
2018-12-12T02:36:30.104Z,7.10
2018-12-12T02:39:03.864Z,7.17
2018-12-12T02:41:36.045Z,7.53
2018-12-12T02:44:08.179Z,11.30
2018-12-12T02:46:40.362Z,7.87
2018-12-12T02:49:12.515Z,7.50
2018-12-12T02:51:44.569Z,9.87
2018-12-12T02:54:16.728Z,7.63
2018-12-12T02:56:48.781Z,8.47
2018-12-12T02:59:20.936Z,6.53
2018-12-12T03:01:53.398Z,9.67
2018-12-12T03:04:25.457Z,8.00
2018-12-12T03:06:57.693Z,9.20
2018-12-12T03:09:29.845Z,9.20
2018-12-12T03:12:01.989Z,9.00
2018-12-12T03:14:34.168Z,8.80
2018-12-12T03:17:06.412Z,7.33
2018-12-12T03:19:38.573Z,7.93
2018-12-12T03:22:10.717Z,10.23
2018-12-12T03:24:42.856Z,8.53
2018-12-12T03:27:15.459Z,12.93
2018-12-12T03:29:47.596Z,10.97
2018-12-12T03:32:19.778Z,10.80
2018-12-12T03:34:51.911Z,10.33
2018-12-12T03:37:24.068Z,9.83
2018-12-12T03:39:56.668Z,10.33
2018-12-12T03:42:29.146Z,12.37
2018-12-12T03:45:01.344Z,7.47
2018-12-12T03:47:33.525Z,10.33
2018-12-12T03:50:05.773Z,11.00
2018-12-12T03:52:37.860Z,7.23
2018-12-12T03:55:10.021Z,13.37
2018-12-12T03:57:42.175Z,8.73
2018-12-12T04:00:14.326Z,9.80
2018-12-12T04:02:46.483Z,9.67
2018-12-12T04:05:18.648Z,7.60
2018-12-12T04:07:50.736Z,11.53
2018-12-12T04:10:22.908Z,8.57
2018-12-12T04:12:55.065Z,6.80
2018-12-12T04:15:27.111Z,9.50
2018-12-12T04:17:59.673Z,10.83
2018-12-12T04:20:31.761Z,9.17
2018-12-12T04:23:04.758Z,9.07
2018-12-12T04:25:37.104Z,8.27
2018-12-12T04:28:09.236Z,15.97
2018-12-12T04:30:41.858Z,7.93
2018-12-12T04:33:14.035Z,14.30
2018-12-12T04:35:46.192Z,8.20
2018-12-12T04:38:18.353Z,9.23
2018-12-12T04:40:50.541Z,8.83
2018-12-12T04:43:22.713Z,9.53
2018-12-12T04:45:54.878Z,12.80
2018-12-12T04:48:26.942Z,13.77
2018-12-12T04:50:59.126Z,17.33
2018-12-12T04:53:31.169Z,9.00
2018-12-12T04:56:03.344Z,13.47
2018-12-12T04:58:35.528Z,17.03
2018-12-12T05:01:07.587Z,8.17
2018-12-12T05:03:39.752Z,10.23
2018-12-12T05:06:11.814Z,14.47
2018-12-12T05:08:43.983Z,8.23
2018-12-12T05:11:16.048Z,13.30
2018-12-12T05:13:48.331Z,13.53
2018-12-12T05:16:20.370Z,15.23
2018-12-12T05:18:52.537Z,17.27
2018-12-12T05:21:24.700Z,14.73
2018-12-12T05:23:56.869Z,13.43
2018-12-12T05:26:29.055Z,16.23
2018-12-12T05:29:01.220Z,14.80
2018-12-12T05:31:33.491Z,15.40
2018-12-12T05:34:05.749Z,17.07
2018-12-12T05:36:37.810Z,17.67
2018-12-12T05:39:09.987Z,16.23
2018-12-12T05:41:42.060Z,23.47
2018-12-12T05:44:14.115Z,22.07
2018-12-12T05:46:46.264Z,26.23
2018-12-12T05:49:18.443Z,21.77
2018-12-12T05:51:50.604Z,25.03
2018-12-12T05:54:22.776Z,24.57
2018-12-12T05:56:54.929Z,29.77
2018-12-12T05:59:27.102Z,31.30
2018-12-12T06:01:59.290Z,24.87
2018-12-12T06:04:31.360Z,31.97
2018-12-12T06:07:03.522Z,28.37
2018-12-12T06:09:35.722Z,28.17
2018-12-12T06:12:07.932Z,37.50
2018-12-12T06:14:40.119Z,44.93
2018-12-12T06:17:12.292Z,30.33
2018-12-12T06:19:44.901Z,30.80
2018-12-12T06:22:17.482Z,36.90
2018-12-12T06:24:49.653Z,32.53
2018-12-12T06:27:21.795Z,27.53
2018-12-12T06:29:53.944Z,29.70
2018-12-12T06:32:26.099Z,33.17
2018-12-12T06:34:58.146Z,29.17
2018-12-12T06:37:30.300Z,25.87
2018-12-12T06:40:02.658Z,31.70
2018-12-12T06:42:34.837Z,27.33
2018-12-12T06:45:07.521Z,34.23
2018-12-12T06:47:39.672Z,35.17
2018-12-12T06:50:11.843Z,28.40
2018-12-12T06:52:43.996Z,27.93
2018-12-12T06:55:16.154Z,33.73
2018-12-12T06:57:48.408Z,28.67
2018-12-12T07:00:20.576Z,28.67
2018-12-12T07:02:52.723Z,24.90
2018-12-12T07:05:24.878Z,23.47
2018-12-12T07:07:56.824Z,23.43
2018-12-12T07:10:29.007Z,22.33
2018-12-12T07:13:01.184Z,21.40
2018-12-12T07:15:33.360Z,22.20
2018-12-12T07:18:05.532Z,25.53
2018-12-12T07:20:37.679Z,33.50
2018-12-12T07:23:09.824Z,71.13
2018-12-12T07:25:41.984Z,96.03
2018-12-12T07:28:14.137Z,72.30
2018-12-12T07:30:46.348Z,57.93
2018-12-12T07:33:18.501Z,24.13
2018-12-12T07:35:50.696Z,23.33
2018-12-12T07:38:22.867Z,23.77
2018-12-12T07:40:55.067Z,19.13
2018-12-12T07:43:27.224Z,20.50
2018-12-12T07:45:59.183Z,16.43
2018-12-12T07:48:31.350Z,20.53
2018-12-12T07:51:03.718Z,22.90
2018-12-12T07:53:35.883Z,20.23
2018-12-12T07:56:08.068Z,20.83
2018-12-12T07:58:40.212Z,20.13
2018-12-12T08:01:12.386Z,16.07
2018-12-12T08:03:44.521Z,15.17
2018-12-12T08:06:16.687Z,22.77
2018-12-12T08:08:48.828Z,18.47
2018-12-12T08:11:20.995Z,18.00
2018-12-12T08:13:53.140Z,17.53
2018-12-12T08:16:25.397Z,14.83
2018-12-12T08:18:57.554Z,17.27
2018-12-12T08:21:29.734Z,17.57
2018-12-12T08:24:01.885Z,18.53
2018-12-12T08:26:34.048Z,27.77
2018-12-12T08:29:06.199Z,24.00
2018-12-12T08:31:38.347Z,20.00
2018-12-12T08:34:10.504Z,17.67
2018-12-12T08:36:42.661Z,15.77
2018-12-12T08:39:14.826Z,20.00
2018-12-12T08:41:46.995Z,21.87
2018-12-12T08:44:19.163Z,21.63
2018-12-12T08:46:51.332Z,19.70
2018-12-12T08:49:23.532Z,16.23
2018-12-12T08:51:55.692Z,17.23
2018-12-12T08:54:27.859Z,15.73
2018-12-12T08:57:00.728Z,14.40
2018-12-12T08:59:32.886Z,18.83
2018-12-12T09:02:05.525Z,20.03
2018-12-12T09:04:37.833Z,26.07
2018-12-12T09:07:09.999Z,21.83
2018-12-12T09:09:42.185Z,39.20
2018-12-12T09:12:14.352Z,34.97
2018-12-12T09:14:46.417Z,21.97
2018-12-12T09:17:18.608Z,22.63
2018-12-12T09:19:50.668Z,16.77
2018-12-12T09:22:22.901Z,22.43
2018-12-12T09:24:55.081Z,14.60
2018-12-12T09:27:27.254Z,21.63
2018-12-12T09:29:59.319Z,23.40
2018-12-12T09:32:31.484Z,22.70
2018-12-12T09:35:03.770Z,17.33
2018-12-12T09:37:35.920Z,20.67
2018-12-12T09:40:08.080Z,15.70
2018-12-12T09:42:40.253Z,13.70
2018-12-12T09:45:12.404Z,16.47
2018-12-12T09:47:44.695Z,15.00
2018-12-12T09:50:17.085Z,20.63
2018-12-12T09:52:49.236Z,17.70
2018-12-12T09:55:21.395Z,22.10
2018-12-12T09:57:53.580Z,17.17
2018-12-12T10:00:25.832Z,17.80
2018-12-12T10:02:57.890Z,11.47
2018-12-12T10:05:30.105Z,16.27
2018-12-12T10:08:02.287Z,13.17
2018-12-12T10:10:34.444Z,12.00
2018-12-12T10:13:06.623Z,14.87
2018-12-12T10:15:38.759Z,15.07
2018-12-12T10:18:10.821Z,12.03
2018-12-12T10:20:43.019Z,15.67
2018-12-12T10:23:15.190Z,9.97
2018-12-12T10:25:47.343Z,8.70
2018-12-12T10:28:19.511Z,8.30
2018-12-12T10:30:51.660Z,9.37
2018-12-12T10:33:23.825Z,16.30
2018-12-12T10:35:55.883Z,12.60
2018-12-12T10:38:28.061Z,11.03
2018-12-12T10:41:00.224Z,12.53
2018-12-12T10:43:32.379Z,9.87
2018-12-12T10:46:04.559Z,8.60
2018-12-12T10:48:36.744Z,8.40
2018-12-12T10:51:08.916Z,11.90
2018-12-12T10:53:41.128Z,8.33
2018-12-12T10:56:13.329Z,8.70
2018-12-12T10:58:45.490Z,11.70
2018-12-12T11:01:23.441Z,10.13
2018-12-12T11:03:55.610Z,11.03
2018-12-12T11:06:27.786Z,8.90
2018-12-12T11:08:59.969Z,7.50
2018-12-12T11:11:32.232Z,12.10
2018-12-12T11:14:04.393Z,11.43
2018-12-12T11:16:36.568Z,11.80
2018-12-12T11:19:08.731Z,11.20
2018-12-12T11:21:40.900Z,10.33
2018-12-12T11:24:13.067Z,8.60
2018-12-12T11:26:45.316Z,9.63
2018-12-12T11:29:17.472Z,8.73
2018-12-12T11:31:49.659Z,9.07
2018-12-12T11:34:21.821Z,7.97
2018-12-12T11:36:53.989Z,11.23
2018-12-12T11:39:26.030Z,6.83
2018-12-12T11:41:58.186Z,13.20
2018-12-12T11:44:30.328Z,7.60
2018-12-12T11:47:02.896Z,10.00
2018-12-12T11:49:35.057Z,15.03
2018-12-12T11:52:07.244Z,9.17
2018-12-12T11:54:39.505Z,13.60
2018-12-12T11:57:12.184Z,9.07
2018-12-12T11:59:44.320Z,11.10
2018-12-12T12:02:16.517Z,14.97
2018-12-12T12:04:48.672Z,13.40
2018-12-12T12:07:20.909Z,14.63
2018-12-12T12:09:53.064Z,20.23
2018-12-12T12:12:25.377Z,21.20
2018-12-12T12:14:57.519Z,10.53
2018-12-12T12:17:31.472Z,7.93
2018-12-12T12:20:04.165Z,9.87
2018-12-12T12:22:36.310Z,8.93
2018-12-12T12:25:08.449Z,16.80
2018-12-12T12:27:40.622Z,12.03
2018-12-12T12:30:12.930Z,9.60
2018-12-12T12:32:45.119Z,7.13
2018-12-12T12:35:17.291Z,8.07
2018-12-12T12:37:49.449Z,10.90
2018-12-12T12:40:21.603Z,8.87
2018-12-12T12:42:53.770Z,9.27
2018-12-12T12:45:25.935Z,8.47
2018-12-12T12:48:02.151Z,11.20
2018-12-12T12:50:34.312Z,12.17
2018-12-12T12:53:06.480Z,8.83
2018-12-12T12:55:38.648Z,15.37
2018-12-12T12:58:10.833Z,16.07
2018-12-12T13:00:43.005Z,16.90
2018-12-12T13:03:15.120Z,22.87
2018-12-12T13:05:47.379Z,48.70
2018-12-12T13:08:19.547Z,30.43
2018-12-12T13:10:51.792Z,14.33
2018-12-12T13:13:24.567Z,15.37
2018-12-12T13:15:57.465Z,9.63
2018-12-12T13:18:29.738Z,9.97
2018-12-12T13:21:01.900Z,10.80
2018-12-12T13:23:33.964Z,9.80
2018-12-12T13:26:06.132Z,11.93
2018-12-12T13:28:38.321Z,9.70
2018-12-12T13:31:10.364Z,7.37
2018-12-12T13:33:42.523Z,11.07
2018-12-12T13:36:14.696Z,9.50
2018-12-12T13:38:48.678Z,9.83
2018-12-12T13:41:20.851Z,9.30
2018-12-12T13:43:53.025Z,8.60
2018-12-12T13:46:25.220Z,10.13
2018-12-12T13:48:57.376Z,13.43
2018-12-12T13:51:29.457Z,14.53
2018-12-12T13:54:01.720Z,10.57
2018-12-12T13:56:33.889Z,13.50
2018-12-12T13:59:06.075Z,14.83
2018-12-12T14:01:38.140Z,9.40
2018-12-12T14:04:10.318Z,12.77
2018-12-12T14:06:42.468Z,7.67
2018-12-12T14:09:14.637Z,8.10
2018-12-12T14:11:46.688Z,9.70
2018-12-12T14:14:18.969Z,13.07
2018-12-12T14:16:51.120Z,13.13
2018-12-12T14:19:23.332Z,12.50
2018-12-12T14:21:55.499Z,12.03
2018-12-12T14:24:27.568Z,11.97
2018-12-12T14:26:59.733Z,13.20
2018-12-12T14:29:31.916Z,11.20
2018-12-12T14:32:04.081Z,10.17
2018-12-12T14:34:36.283Z,14.03
2018-12-12T14:37:08.372Z,10.40
2018-12-12T14:39:40.423Z,11.40
2018-12-12T14:42:12.583Z,12.70
2018-12-12T14:44:44.796Z,13.63
2018-12-12T14:47:16.839Z,14.20
2018-12-12T14:49:48.896Z,21.90
2018-12-12T14:52:20.963Z,15.80
2018-12-12T14:54:53.021Z,20.17
2018-12-12T14:57:25.080Z,19.03
2018-12-12T14:59:57.252Z,14.57
2018-12-12T15:02:29.326Z,15.87
2018-12-12T15:05:01.417Z,15.97
2018-12-12T15:07:33.595Z,13.67
2018-12-12T15:10:05.802Z,16.10
2018-12-12T15:12:37.987Z,16.00
2018-12-12T15:15:10.172Z,17.53
2018-12-12T15:17:42.373Z,14.40
2018-12-12T15:20:14.570Z,16.90
2018-12-12T15:22:46.760Z,20.03
2018-12-12T15:25:18.970Z,21.43
2018-12-12T15:27:51.121Z,17.50
2018-12-12T15:30:23.292Z,22.90
2018-12-12T15:32:55.560Z,28.53
2018-12-12T15:35:27.735Z,32.73
2018-12-12T15:38:01.385Z,24.47
2018-12-12T15:40:33.792Z,24.80
2018-12-12T15:43:05.948Z,36.77
2018-12-12T15:45:38.008Z,27.47
2018-12-12T15:48:10.170Z,27.33
2018-12-12T15:50:42.340Z,36.77
2018-12-12T15:53:14.527Z,30.60
2018-12-12T15:55:46.696Z,29.07
2018-12-12T15:58:18.888Z,34.90
2018-12-12T16:00:51.235Z,34.33
2018-12-12T16:03:23.500Z,31.87
2018-12-12T16:05:55.559Z,27.37
2018-12-12T16:08:27.728Z,32.87
2018-12-12T16:10:59.921Z,31.90
2018-12-12T16:13:32.073Z,31.27
2018-12-12T16:16:04.229Z,31.67
2018-12-12T16:18:36.391Z,31.73
2018-12-12T16:21:08.462Z,29.63
2018-12-12T16:23:40.620Z,35.00
2018-12-12T16:26:12.886Z,26.70
2018-12-12T16:28:45.113Z,30.27
2018-12-12T16:31:17.288Z,32.70
2018-12-12T16:33:49.487Z,29.87
2018-12-12T16:36:21.673Z,36.27
2018-12-12T16:38:53.861Z,33.90
2018-12-12T16:41:26.025Z,37.60
2018-12-12T16:43:58.068Z,33.57
2018-12-12T16:46:30.260Z,25.43
2018-12-12T16:49:02.309Z,34.20
2018-12-12T16:51:34.492Z,33.53
2018-12-12T16:54:06.665Z,36.47
2018-12-12T16:56:38.864Z,35.70
2018-12-12T16:59:11.042Z,38.63
2018-12-12T17:01:43.240Z,34.13
2018-12-12T17:04:15.405Z,36.20
2018-12-12T17:06:47.595Z,37.33
2018-12-12T17:09:19.648Z,37.23
2018-12-12T17:11:51.825Z,42.57
2018-12-12T17:14:26.865Z,40.63
2018-12-12T17:16:59.036Z,35.13
2018-12-12T17:19:31.228Z,31.17
2018-12-12T17:22:03.445Z,36.60
2018-12-12T17:24:35.620Z,34.73
2018-12-12T17:27:07.791Z,33.47
2018-12-12T17:29:39.949Z,41.60
2018-12-12T17:32:12.119Z,38.53
2018-12-12T17:34:44.174Z,36.27
2018-12-12T17:37:16.342Z,31.00
2018-12-12T17:39:48.644Z,43.03
2018-12-12T17:42:20.908Z,45.70
2018-12-12T17:44:53.080Z,39.00
2018-12-12T17:47:25.441Z,34.20
2018-12-12T17:49:57.501Z,31.07
2018-12-12T17:52:29.673Z,36.07
2018-12-12T17:55:01.903Z,42.63
2018-12-12T17:57:34.092Z,47.43
2018-12-12T18:00:07.205Z,36.63
2018-12-12T18:02:39.416Z,41.60
2018-12-12T18:05:15.239Z,34.27
2018-12-12T18:07:45.764Z,38.77
2018-12-12T18:10:17.924Z,40.70
2018-12-12T18:12:50.124Z,50.47
2018-12-12T18:15:22.284Z,46.33
2018-12-12T18:17:54.454Z,48.77
2018-12-12T18:20:26.636Z,50.67
2018-12-12T18:22:58.807Z,41.80
2018-12-12T18:25:30.963Z,48.73
2018-12-12T18:28:03.180Z,45.87
2018-12-12T18:30:35.356Z,55.33
2018-12-12T18:33:07.517Z,48.67
2018-12-12T18:35:39.575Z,78.43
2018-12-12T18:38:11.769Z,61.13
2018-12-12T18:40:43.837Z,67.00
2018-12-12T18:43:16.000Z,54.53
2018-12-12T18:45:48.184Z,73.40
2018-12-12T18:48:20.267Z,66.10
2018-12-12T18:50:52.454Z,73.43
2018-12-12T18:53:24.590Z,77.63
2018-12-12T18:55:56.754Z,81.40
2018-12-12T18:58:28.923Z,82.13
2018-12-12T19:01:01.086Z,75.13
2018-12-12T19:03:33.136Z,71.20
2018-12-12T19:06:05.295Z,68.33
2018-12-12T19:08:37.504Z,70.03
2018-12-12T19:11:09.780Z,71.17
2018-12-12T19:13:42.009Z,70.97
2018-12-12T19:16:14.380Z,67.10
2018-12-12T19:18:46.849Z,66.23
2018-12-12T19:21:19.049Z,84.47
2018-12-12T19:23:51.359Z,59.90
2018-12-12T19:26:23.569Z,56.40
2018-12-12T19:28:55.729Z,57.80
2018-12-12T19:31:27.901Z,58.70
2018-12-12T19:33:59.996Z,63.27
2018-12-12T19:36:32.171Z,63.80
2018-12-12T19:39:06.776Z,65.70
2018-12-12T19:41:39.074Z,70.90
2018-12-12T19:44:11.263Z,79.40
2018-12-12T19:46:43.443Z,66.57
2018-12-12T19:49:15.540Z,60.40
2018-12-12T19:51:47.742Z,63.83
2018-12-12T19:54:19.933Z,56.53
2018-12-12T19:56:52.015Z,59.87
2018-12-12T19:59:24.218Z,61.80
2018-12-12T20:01:56.392Z,56.80
2018-12-12T20:04:28.704Z,66.60
2018-12-12T20:07:00.890Z,57.77
2018-12-12T20:09:32.896Z,56.83
2018-12-12T20:12:05.098Z,58.50
2018-12-12T20:14:37.314Z,60.30
2018-12-12T20:17:09.489Z,60.83
2018-12-12T20:19:41.776Z,50.33
2018-12-12T20:22:14.077Z,74.60
2018-12-12T20:24:46.359Z,65.87
2018-12-12T20:27:18.557Z,64.13
2018-12-12T20:29:50.745Z,68.80
2018-12-12T20:32:22.908Z,63.87
2018-12-12T20:34:54.972Z,57.10
2018-12-12T20:37:27.042Z,54.70
2018-12-12T20:39:59.142Z,61.47
2018-12-12T20:42:31.346Z,55.20
2018-12-12T20:45:03.860Z,57.60
2018-12-12T20:47:35.945Z,55.53
2018-12-12T20:50:08.132Z,57.07
2018-12-12T20:52:40.307Z,66.63
2018-12-12T20:55:12.489Z,56.30
2018-12-12T20:57:44.548Z,61.43
2018-12-12T21:00:16.719Z,47.47
2018-12-12T21:02:48.800Z,53.93
2018-12-12T21:05:20.994Z,53.03
2018-12-12T21:07:53.032Z,52.33
2018-12-12T21:10:25.188Z,50.83
2018-12-12T21:12:57.359Z,53.37
2018-12-12T21:15:29.539Z,66.17
2018-12-12T21:18:01.716Z,62.10
2018-12-12T21:20:33.817Z,54.83
2018-12-12T21:23:05.982Z,73.50
2018-12-12T21:25:38.573Z,60.67
2018-12-12T21:28:10.739Z,59.10
2018-12-12T21:30:42.908Z,58.90
2018-12-12T21:33:15.063Z,54.43
2018-12-12T21:35:47.246Z,57.23
2018-12-12T21:38:19.392Z,57.50
2018-12-12T21:40:51.924Z,51.97
2018-12-12T21:43:23.877Z,63.60
2018-12-12T21:45:56.036Z,73.03
2018-12-12T21:48:28.212Z,67.23
2018-12-12T21:51:00.273Z,58.53
2018-12-12T21:53:32.452Z,55.10
2018-12-12T21:56:04.665Z,67.73
2018-12-12T21:58:36.816Z,59.73
2018-12-12T22:01:08.984Z,63.03
2018-12-12T22:03:41.165Z,61.87
2018-12-12T22:06:13.347Z,57.07
2018-12-12T22:08:45.427Z,59.60
2018-12-12T22:11:17.601Z,70.03
2018-12-12T22:13:49.798Z,65.83
2018-12-12T22:16:21.873Z,73.40
2018-12-12T22:18:54.043Z,64.27
2018-12-12T22:21:26.197Z,75.17
2018-12-12T22:23:58.356Z,72.60
2018-12-12T22:26:30.520Z,81.00
2018-12-12T22:29:02.676Z,80.23
2018-12-12T22:31:34.834Z,76.00
2018-12-12T22:34:06.992Z,75.27
2018-12-12T22:36:39.045Z,80.00
2018-12-12T22:39:11.211Z,65.93
2018-12-12T22:41:43.394Z,84.97
2018-12-12T22:44:15.551Z,69.23
2018-12-12T22:46:47.636Z,67.97
2018-12-12T22:49:19.913Z,73.10
2018-12-12T22:51:52.092Z,61.20
2018-12-12T22:54:24.373Z,58.73
2018-12-12T22:56:56.424Z,63.20
2018-12-12T22:59:28.588Z,70.93
2018-12-12T23:02:00.756Z,68.57
2018-12-12T23:04:33.019Z,63.27
2018-12-12T23:07:05.333Z,69.10
2018-12-12T23:09:37.607Z,61.90
2018-12-12T23:12:09.767Z,68.10
2018-12-12T23:14:42.625Z,62.73
2018-12-12T23:17:14.791Z,62.27
2018-12-12T23:19:46.944Z,70.23
2018-12-12T23:22:19.133Z,82.67
2018-12-12T23:24:51.265Z,72.23
2018-12-12T23:27:23.338Z,66.10
2018-12-12T23:29:55.485Z,66.70
2018-12-12T23:32:27.644Z,61.83
2018-12-12T23:34:59.787Z,62.57
2018-12-12T23:37:31.854Z,63.00
2018-12-12T23:40:04.009Z,60.33
2018-12-12T23:42:36.165Z,67.33
2018-12-12T23:45:08.306Z,59.90
2018-12-12T23:47:40.463Z,67.67
2018-12-12T23:50:12.668Z,73.03
2018-12-12T23:52:44.833Z,67.30
2018-12-12T23:55:16.985Z,61.77
2018-12-12T23:57:49.154Z,67.50
